AustriaFixed distance
Bergmarathon Rund um den Traunsee
5 Jul2008
Distance
70km
Finishers
212196 men16 women
Winning time
7:26:00h
Median pace
5.71km/h
Pace distribution
212 finishers · 3.88–9.42 km/h · mean 5.81
Every finisher ran the same 70 km course, so these paces are directly comparable.
Histogram of finisher pace. 212 finishers ranged from 3.88 to 9.42 kilometres per hour, with a mean of 5.81 and a median of 5.71. The busiest band is 5.5 to 6.0 kilometres per hour, with 46 finishers.
Results
Ranks 151–200 of 212
| Rank | Runner | Time | Pace | Cat. | Placing |
|---|---|---|---|---|---|
| 151 | *Roitham | 13:25:00h | 5.22 | M45 | 140th M · 26th M45 |
| 152 | *Gramastetten | 13:27:00h | 5.20 | M45 | 141st M · 27th M45 |
| 153 | *Neuhofen | 13:30:00h | 5.18 | M50 | 142nd M · 13th M50 |
| 154 | *Grünau | 13:32:00h | 5.17 | M45 | 143rd M · 28th M45 |
| 155 | *Kirchham | 13:33:00h | 5.17 | M55 | 144th M · 3rd M55 |
| 156 | *Schwanenstadt | 13:35:00h | 5.15 | M23 | 145th M · 38th M23 |
| 157 | *Attnang-Puchheim | 13:36:00h | 5.15 | M45 | 146th M · 29th M45 |
| 158 | *Hohe Wand | 13:38:00h | 5.13 | W23 | 12th F · 4th W23 |
| 159 | ULC Linz | 13:39:00h | 5.13 | M40 | 147th M · 38th M40 |
| 160 | SV Neuland | 13:40:00h | 5.12 | M23 | 148th M · 39th M23 |
| 161 | *Linz | 13:41:00h | 5.12 | M45 | 149th M · 30th M45 |
| 162 | *Pinsdorf | 13:47:00h | 5.08 | M55 | 150th M · 4th M55 |
| 163 | *Pinsdorf | 13:52:00h | 5.05 | M35 | 151st M · 25th M35 |
| 164 | *Oberneukirchen | 13:52:00h | 5.05 | M40 | 151st M · 39th M40 |
| 165 | *Linz | 13:52:00h | 5.05 | M23 | 151st M · 40th M23 |
| 166 | *Felixdorf | 13:53:00h | 5.04 | M23 | 154th M · 41st M23 |
| 167 | *Schwanenstadt | 13:55:00h | 5.03 | M45 | 155th M · 31st M45 |
| 168 | *Esternberg | 14:03:00h | 4.98 | M35 | 156th M · 26th M35 |
| 169 | *Ebensee | 14:03:00h | 4.98 | M35 | 156th M · 26th M35 |
| 170 | *Eisenstadt | 14:06:00h | 4.96 | M40 | 158th M · 40th M40 |
| 171 | *Altmünster | 14:07:00h | 4.96 | M60 | 159th M · 2nd M60 |
| 172 | *Riga (LAT) | 14:10:00h | 4.94 | M23 | 160th M · 42nd M23 |
| 173 | *Attnang-Puchheim | 14:15:00h | 4.91 | M45 | 161st M · 32nd M45 |
| 174 | *Gallneukirchen | 14:15:00h | 4.91 | M40 | 161st M · 41st M40 |
| 175 | Sal4run | 14:19:00h | 4.89 | M50 | 163rd M · 14th M50 |
| 176 | *Linz | 14:22:00h | 4.87 | M45 | 164th M · 33rd M45 |
| 177 | *Ansfelden | 14:24:00h | 4.86 | M50 | 165th M · 15th M50 |
| 178 | *Wien | 14:32:00h | 4.82 | M45 | 166th M · 34th M45 |
| 179 | *Schwanenstadt | 14:36:00h | 4.79 | M35 | 167th M · 28th M35 |
| 180 | LTC Graz | 14:46:00h | 4.74 | M40 | 168th M · 42nd M40 |
| 181 | *Anthering | 14:48:00h | 4.73 | M35 | 169th M · 29th M35 |
| 182 | *Pinsdorf | 14:58:00h | 4.68 | W35 | 13th F · 2nd W35 |
| 183 | *Pinsdorf | 14:58:00h | 4.68 | W35 | 13th F · 2nd W35 |
| 184 | *Gmunden | 14:58:00h | 4.68 | W23 | 13th F · 5th W23 |
| 185 | LC MKW Hausruck | 15:02:00h | 4.66 | M45 | 170th M · 35th M45 |
| 186 | *Ampflwang | 15:06:00h | 4.64 | M40 | 171st M · 43rd M40 |
| 187 | *Gmunden | 15:19:00h | 4.57 | M45 | 172nd M · 36th M45 |
| 188 | LCA Hochschwab | 15:36:00h | 4.49 | M45 | 173rd M · 37th M45 |
| 189 | *Salzburg | 15:43:00h | 4.45 | M23 | 174th M · 43rd M23 |
| 190 | *Jockgrim | 15:43:00h | 4.45 | M23 | 174th M · 43rd M23 |
| 191 | *Wien | 15:44:00h | 4.45 | M35 | 176th M · 30th M35 |
| 192 | *Haag/Hausruck | 15:47:00h | 4.43 | M45 | 177th M · 38th M45 |
| 193 | *Ebensee | 15:51:00h | 4.42 | M65 | 178th M · 1st M65 |
| 194 | *Karlsruhe | 15:51:00h | 4.42 | M40 | 178th M · 44th M40 |
| 195 | *Pinsdorf | 16:15:00h | 4.31 | W23 | 16th F · 6th W23 |
| 196 | *Gmunden | 16:15:00h | 4.31 | M45 | 180th M · 39th M45 |
| 197 | *Nittendorf | 16:28:00h | 4.25 | M45 | 181st M · 40th M45 |
| 198 | *Wien | 16:43:00h | 4.19 | M40 | 182nd M · 45th M40 |
| 199 | *Vinkovci | 16:43:00h | 4.19 | M23 | 182nd M · 45th M23 |
| 200 | 1.Österreichischer Ult... | 16:43:00h | 4.19 | M50 | 182nd M · 16th M50 |
- 151*Roitham140th M · 26th M45Time13:25:00hPace5.22Cat.M45
- 152*Gramastetten141st M · 27th M45Time13:27:00hPace5.20Cat.M45
- 153*Neuhofen142nd M · 13th M50Time13:30:00hPace5.18Cat.M50
- 154*Grünau143rd M · 28th M45Time13:32:00hPace5.17Cat.M45
- 155*Kirchham144th M · 3rd M55Time13:33:00hPace5.17Cat.M55
- 156*Schwanenstadt145th M · 38th M23Time13:35:00hPace5.15Cat.M23
- 157*Attnang-Puchheim146th M · 29th M45Time13:36:00hPace5.15Cat.M45
- 158*Hohe Wand12th F · 4th W23Time13:38:00hPace5.13Cat.W23
- 159ULC Linz147th M · 38th M40Time13:39:00hPace5.13Cat.M40
- 160SV Neuland148th M · 39th M23Time13:40:00hPace5.12Cat.M23
- 161*Linz149th M · 30th M45Time13:41:00hPace5.12Cat.M45
- 162*Pinsdorf150th M · 4th M55Time13:47:00hPace5.08Cat.M55
- 163*Pinsdorf151st M · 25th M35Time13:52:00hPace5.05Cat.M35
- 164*Oberneukirchen151st M · 39th M40Time13:52:00hPace5.05Cat.M40
- 165*Linz151st M · 40th M23Time13:52:00hPace5.05Cat.M23
- 166*Felixdorf154th M · 41st M23Time13:53:00hPace5.04Cat.M23
- 167*Schwanenstadt155th M · 31st M45Time13:55:00hPace5.03Cat.M45
- 168*Esternberg156th M · 26th M35Time14:03:00hPace4.98Cat.M35
- 169*Ebensee156th M · 26th M35Time14:03:00hPace4.98Cat.M35
- 170*Eisenstadt158th M · 40th M40Time14:06:00hPace4.96Cat.M40
- 171*Altmünster159th M · 2nd M60Time14:07:00hPace4.96Cat.M60
- 172*Riga (LAT)160th M · 42nd M23Time14:10:00hPace4.94Cat.M23
- 173*Attnang-Puchheim161st M · 32nd M45Time14:15:00hPace4.91Cat.M45
- 174*Gallneukirchen161st M · 41st M40Time14:15:00hPace4.91Cat.M40
- 175Sal4run163rd M · 14th M50Time14:19:00hPace4.89Cat.M50
- 176*Linz164th M · 33rd M45Time14:22:00hPace4.87Cat.M45
- 177*Ansfelden165th M · 15th M50Time14:24:00hPace4.86Cat.M50
- 178*Wien166th M · 34th M45Time14:32:00hPace4.82Cat.M45
- 179*Schwanenstadt167th M · 28th M35Time14:36:00hPace4.79Cat.M35
- 180LTC Graz168th M · 42nd M40Time14:46:00hPace4.74Cat.M40
- 181*Anthering169th M · 29th M35Time14:48:00hPace4.73Cat.M35
- 182*Pinsdorf13th F · 2nd W35Time14:58:00hPace4.68Cat.W35
- 183*Pinsdorf13th F · 2nd W35Time14:58:00hPace4.68Cat.W35
- 184*Gmunden13th F · 5th W23Time14:58:00hPace4.68Cat.W23
- 185LC MKW Hausruck170th M · 35th M45Time15:02:00hPace4.66Cat.M45
- 186*Ampflwang171st M · 43rd M40Time15:06:00hPace4.64Cat.M40
- 187*Gmunden172nd M · 36th M45Time15:19:00hPace4.57Cat.M45
- 188LCA Hochschwab173rd M · 37th M45Time15:36:00hPace4.49Cat.M45
- 189*Salzburg174th M · 43rd M23Time15:43:00hPace4.45Cat.M23
- 190*Jockgrim174th M · 43rd M23Time15:43:00hPace4.45Cat.M23
- 191*Wien176th M · 30th M35Time15:44:00hPace4.45Cat.M35
- 192*Haag/Hausruck177th M · 38th M45Time15:47:00hPace4.43Cat.M45
- 193*Ebensee178th M · 1st M65Time15:51:00hPace4.42Cat.M65
- 194*Karlsruhe178th M · 44th M40Time15:51:00hPace4.42Cat.M40
- 195*Pinsdorf16th F · 6th W23Time16:15:00hPace4.31Cat.W23
- 196*Gmunden180th M · 39th M45Time16:15:00hPace4.31Cat.M45
- 197*Nittendorf181st M · 40th M45Time16:28:00hPace4.25Cat.M45
- 198*Wien182nd M · 45th M40Time16:43:00hPace4.19Cat.M40
- 199*Vinkovci182nd M · 45th M23Time16:43:00hPace4.19Cat.M23
- 2001.Österreichischer Ult...182nd M · 16th M50Time16:43:00hPace4.19Cat.M50
Showing ranks 151–200 of 212